Time;durP1;ratioP1;P1;durP2;ratioP2;P2;SDS_P1;SDS_P2;PMS_P1;PMS_P2;Temp;Humidity;BMP_temperature;BMP_pressure;BME280_temperature;BME280_humidity;BME280_pressure;Samples;Min_cycle;Max_cycle;Signal;HPM_P1;HPM_P2
2023/09/29 00:00:16;;;;;;;3.97;3.65;;;18.20;99.90;;;;;;5055266;28;20244;-74
2023/09/29 00:02:44;;;;;;;3.90;3.60;;;18.20;99.90;;;;;;5066910;28;20198;-75
2023/09/29 00:05:11;;;;;;;4.75;4.35;;;18.20;99.90;;;;;;5083805;28;20242;-74
2023/09/29 00:07:39;;;;;;;4.32;3.70;;;18.10;99.90;;;;;;5062694;28;20202;-73
2023/09/29 00:10:09;;;;;;;3.67;3.38;;;18.10;99.90;;;;;;5061619;28;20252;-74
2023/09/29 00:12:38;;;;;;;3.97;3.67;;;18.10;99.90;;;;;;5060756;28;20202;-76
2023/09/29 00:15:05;;;;;;;3.70;3.40;;;18.10;99.90;;;;;;5060935;28;20283;-73
2023/09/29 00:17:32;;;;;;;4.22;3.83;;;18.10;99.90;;;;;;5061611;28;20872;-74
2023/09/29 00:19:59;;;;;;;4.22;3.90;;;18.10;99.90;;;;;;5061541;28;20261;-74
2023/09/29 00:22:27;;;;;;;4.97;3.95;;;18.10;99.90;;;;;;5062165;28;20206;-74
2023/09/29 00:24:54;;;;;;;4.88;4.15;;;18.00;99.90;;;;;;5061362;28;20271;-75
2023/09/29 00:27:22;;;;;;;4.22;3.83;;;18.00;99.90;;;;;;5061920;28;20285;-76
2023/09/29 00:29:49;;;;;;;3.97;3.60;;;18.00;99.90;;;;;;5058305;28;20214;-73
2023/09/29 00:32:16;;;;;;;4.30;3.33;;;18.00;99.90;;;;;;5059740;28;20206;-74
2023/09/29 00:34:43;;;;;;;4.30;4.00;;;17.90;99.90;;;;;;5061138;28;20627;-74
2023/09/29 00:37:10;;;;;;;4.55;3.67;;;17.90;99.90;;;;;;5060498;28;20194;-74
2023/09/29 00:39:37;;;;;;;4.28;3.88;;;17.90;99.90;;;;;;5060820;28;20191;-76
2023/09/29 00:42:06;;;;;;;4.80;4.30;;;17.90;99.90;;;;;;5060594;28;20264;-74
2023/09/29 00:44:34;;;;;;;3.83;3.53;;;17.90;99.90;;;;;;5060639;28;20250;-75
2023/09/29 00:47:05;;;;;;;3.92;3.55;;;17.90;99.90;;;;;;5059930;28;20232;-76
2023/09/29 00:49:33;;;;;;;4.50;4.10;;;17.90;99.90;;;;;;5072094;28;20178;-76
2023/09/29 00:52:01;;;;;;;4.13;3.72;;;17.90;99.90;;;;;;5093836;28;20183;-73
2023/09/29 00:54:32;;;;;;;5.07;4.05;;;17.90;99.90;;;;;;5089587;28;20206;-78
2023/09/29 00:57:00;;;;;;;4.75;4.07;;;17.90;99.90;;;;;;5071350;28;20230;-72
2023/09/29 00:59:31;;;;;;;4.57;4.18;;;17.90;99.90;;;;;;5060815;28;20259;-74
2023/09/29 01:02:02;;;;;;;4.60;4.30;;;17.80;99.90;;;;;;5062154;28;20206;-74
2023/09/29 01:04:31;;;;;;;5.72;4.43;;;17.80;99.90;;;;;;5058021;28;20218;-74
2023/09/29 01:06:58;;;;;;;5.03;4.57;;;17.70;99.90;;;;;;5061395;28;20213;-77
2023/09/29 01:09:26;;;;;;;4.47;4.10;;;17.70;99.90;;;;;;5061962;28;20202;-74
2023/09/29 01:11:53;;;;;;;4.10;3.80;;;17.70;99.90;;;;;;5055981;28;20221;-75
2023/09/29 01:14:20;;;;;;;4.38;3.97;;;17.60;99.90;;;;;;5057936;28;20227;-74
2023/09/29 01:16:48;;;;;;;4.05;3.75;;;17.60;99.90;;;;;;5060178;28;20920;-76
2023/09/29 01:19:18;;;;;;;4.13;3.80;;;17.60;99.90;;;;;;5060948;28;20795;-75
2023/09/29 01:21:45;;;;;;;3.75;3.53;;;17.60;99.90;;;;;;5059849;28;20202;-75
2023/09/29 01:24:14;;;;;;;3.90;3.60;;;17.60;99.90;;;;;;5060072;28;20222;-76
2023/09/29 01:26:44;;;;;;;4.07;3.70;;;17.60;99.90;;;;;;5060590;28;20206;-76
2023/09/29 01:29:12;;;;;;;4.35;4.05;;;17.60;99.90;;;;;;5063136;28;20283;-75
2023/09/29 01:31:41;;;;;;;4.45;4.00;;;17.60;99.90;;;;;;5060321;28;20903;-76
2023/09/29 01:34:08;;;;;;;4.50;4.10;;;17.50;99.90;;;;;;5057692;28;21357;-75
2023/09/29 01:36:36;;;;;;;3.97;3.67;;;17.50;99.90;;;;;;5057845;28;20869;-76
2023/09/29 01:39:04;;;;;;;4.55;4.15;;;17.50;99.90;;;;;;5061842;28;20222;-74
2023/09/29 01:41:33;;;;;;;4.18;3.88;;;17.50;99.90;;;;;;5054778;28;20688;-74
2023/09/29 01:44:00;;;;;;;4.40;4.10;;;17.50;99.90;;;;;;5058896;28;20253;-75
2023/09/29 01:46:29;;;;;;;4.18;3.83;;;17.50;99.90;;;;;;5058698;28;20207;-74
2023/09/29 01:48:56;;;;;;;4.63;3.90;;;17.50;99.90;;;;;;5056685;28;20285;-75
2023/09/29 01:51:28;;;;;;;4.88;4.15;;;17.50;99.90;;;;;;5059247;28;20264;-74
2023/09/29 01:53:55;;;;;;;4.63;4.22;;;17.50;99.90;;;;;;5055715;28;20218;-76
2023/09/29 01:56:22;;;;;;;4.38;3.97;;;17.50;99.90;;;;;;5057998;28;20252;-74
2023/09/29 01:58:51;;;;;;;4.28;3.90;;;17.40;99.90;;;;;;5062121;28;20267;-74
2023/09/29 02:01:18;;;;;;;4.38;3.97;;;17.40;99.90;;;;;;5058712;28;20210;-76
2023/09/29 02:03:48;;;;;;;4.22;3.92;;;17.40;99.90;;;;;;5056819;28;20254;-76
2023/09/29 02:06:15;;;;;;;4.25;3.92;;;17.30;99.90;;;;;;5069841;28;20203;-76
2023/09/29 02:08:42;;;;;;;4.50;4.10;;;17.30;99.90;;;;;;5059362;28;20198;-74
2023/09/29 02:11:09;;;;;;;4.60;4.20;;;17.30;99.90;;;;;;5056639;28;20801;-75
2023/09/29 02:13:36;;;;;;;4.47;4.07;;;17.30;99.90;;;;;;5059622;28;20222;-74
2023/09/29 02:16:12;;;;;;;4.25;3.90;;;17.30;99.90;;;;;;5059635;28;20255;-76
2023/09/29 02:18:39;;;;;;;4.25;3.85;;;17.20;99.90;;;;;;5055043;28;20285;-74
2023/09/29 02:21:09;;;;;;;4.70;4.30;;;17.20;99.90;;;;;;5059433;28;20758;-73
2023/09/29 02:23:38;;;;;;;4.32;3.95;;;17.20;99.90;;;;;;5055988;28;20704;-74
2023/09/29 02:26:08;;;;;;;4.07;3.78;;;17.10;99.90;;;;;;5058637;28;20194;-74
2023/09/29 02:28:36;;;;;;;4.53;4.13;;;17.10;99.90;;;;;;5060135;28;20260;-74
2023/09/29 02:31:03;;;;;;;4.38;4.00;;;17.10;99.90;;;;;;5059082;28;20248;-75
2023/09/29 02:33:31;;;;;;;4.38;3.97;;;17.10;99.90;;;;;;5056852;28;20673;-74
2023/09/29 02:35:58;;;;;;;6.93;4.40;;;17.10;99.90;;;;;;5056515;28;20684;-76
2023/09/29 02:38:25;;;;;;;4.65;4.25;;;17.00;99.90;;;;;;5061490;28;20915;-73
2023/09/29 02:40:54;;;;;;;4.57;4.18;;;17.00;99.90;;;;;;5060293;28;20199;-74
2023/09/29 02:43:21;;;;;;;4.15;3.85;;;17.00;99.90;;;;;;5058227;28;20876;-74
2023/09/29 02:45:48;;;;;;;4.50;4.13;;;17.00;99.90;;;;;;5054663;28;20214;-75
2023/09/29 02:48:15;;;;;;;4.40;4.00;;;17.00;99.90;;;;;;5057568;28;20205;-75
2023/09/29 02:50:45;;;;;;;4.50;4.10;;;17.00;99.90;;;;;;5061584;28;20221;-74
2023/09/29 02:53:12;;;;;;;4.45;4.15;;;17.00;99.90;;;;;;5055814;28;20226;-75
2023/09/29 02:55:39;;;;;;;4.07;3.78;;;17.00;99.90;;;;;;5061038;28;20970;-74
2023/09/29 02:58:06;;;;;;;5.30;4.30;;;17.00;99.90;;;;;;5056674;28;20202;-76
2023/09/29 03:00:33;;;;;;;4.63;4.10;;;17.00;99.90;;;;;;5058877;28;20198;-74
2023/09/29 03:03:00;;;;;;;4.32;3.92;;;17.00;99.90;;;;;;5055360;28;20222;-74
2023/09/29 03:05:27;;;;;;;4.15;3.85;;;17.00;99.90;;;;;;5060479;28;20714;-75
2023/09/29 03:07:56;;;;;;;4.45;4.05;;;17.00;99.90;;;;;;5055758;28;20220;-76
2023/09/29 03:10:26;;;;;;;5.30;4.90;;;16.90;99.90;;;;;;5058760;28;20708;-75
2023/09/29 03:12:56;;;;;;;4.28;3.88;;;16.90;99.90;;;;;;5056325;28;20272;-74
2023/09/29 03:15:24;;;;;;;4.75;4.20;;;16.90;99.90;;;;;;5056881;28;20214;-74
2023/09/29 03:17:52;;;;;;;4.82;4.43;;;16.90;99.90;;;;;;5059008;28;20953;-74
2023/09/29 03:20:20;;;;;;;4.30;4.00;;;16.80;99.90;;;;;;5057136;28;20855;-74
2023/09/29 03:22:48;;;;;;;5.38;4.18;;;16.80;99.90;;;;;;5056467;28;20199;-76
2023/09/29 03:25:18;;;;;;;4.50;4.10;;;16.80;99.90;;;;;;5059911;28;20312;-74
2023/09/29 03:27:46;;;;;;;4.47;4.07;;;16.80;99.90;;;;;;5056800;28;20602;-74
2023/09/29 03:30:15;;;;;;;4.10;3.80;;;16.80;99.90;;;;;;5058644;28;20781;-74
2023/09/29 03:32:42;;;;;;;4.22;3.78;;;16.80;99.90;;;;;;5056939;28;20228;-75
2023/09/29 03:35:10;;;;;;;4.35;4.05;;;16.80;99.90;;;;;;5058488;28;20609;-75
2023/09/29 03:37:39;;;;;;;4.80;4.32;;;16.80;99.90;;;;;;5059471;28;20201;-76
2023/09/29 03:40:08;;;;;;;5.28;4.32;;;16.70;99.90;;;;;;5056728;28;20199;-75
2023/09/29 03:42:38;;;;;;;4.80;3.90;;;16.70;99.90;;;;;;5058768;28;20198;-74
2023/09/29 03:45:06;;;;;;;5.18;4.10;;;16.70;99.90;;;;;;5062240;28;20876;-75
2023/09/29 03:47:34;;;;;;;4.57;4.20;;;16.70;99.90;;;;;;5060254;28;20203;-75
2023/09/29 03:50:01;;;;;;;4.70;4.15;;;16.70;99.90;;;;;;5061481;28;20285;-74
2023/09/29 03:52:29;;;;;;;4.57;4.18;;;16.70;99.90;;;;;;5062034;28;20206;-75
2023/09/29 03:54:57;;;;;;;4.53;4.22;;;16.70;99.90;;;;;;5060496;28;20214;-75
2023/09/29 03:57:24;;;;;;;4.50;4.10;;;16.60;99.90;;;;;;5062202;28;20288;-74
2023/09/29 03:59:53;;;;;;;4.75;4.35;;;16.60;99.90;;;;;;5063684;28;20207;-75
2023/09/29 04:02:20;;;;;;;4.88;4.47;;;16.60;99.90;;;;;;5058181;28;20285;-77
2023/09/29 04:04:48;;;;;;;5.07;4.60;;;16.50;99.90;;;;;;5069805;28;20218;-76
2023/09/29 04:07:16;;;;;;;4.60;4.13;;;16.50;99.90;;;;;;5091759;28;20212;-75
2023/09/29 04:09:43;;;;;;;4.68;4.28;;;16.50;99.90;;;;;;5063711;28;20281;-74
2023/09/29 04:12:10;;;;;;;4.43;4.13;;;16.40;99.90;;;;;;5061162;28;21026;-75
2023/09/29 04:14:37;;;;;;;4.40;4.00;;;16.50;99.90;;;;;;5060471;28;20223;-75
2023/09/29 04:17:05;;;;;;;4.75;4.35;;;16.50;99.90;;;;;;5063693;28;20199;-75
2023/09/29 04:19:35;;;;;;;4.35;3.95;;;16.50;99.90;;;;;;5060638;28;20208;-75
2023/09/29 04:22:03;;;;;;;4.82;4.43;;;16.50;99.90;;;;;;5061599;28;20198;-74
2023/09/29 04:24:30;;;;;;;4.88;4.40;;;16.50;99.90;;;;;;5085938;28;20240;-77
2023/09/29 04:26:57;;;;;;;5.00;4.53;;;16.50;99.90;;;;;;5090801;28;20175;-78
2023/09/29 04:29:25;;;;;;;4.38;4.07;;;16.50;99.90;;;;;;5086321;28;20186;-77
2023/09/29 04:31:52;;;;;;;5.10;4.57;;;16.50;99.90;;;;;;5065643;28;20202;-78
2023/09/29 04:34:20;;;;;;;5.20;4.70;;;16.50;99.90;;;;;;5059206;28;20222;-74
2023/09/29 04:36:47;;;;;;;5.03;4.60;;;16.50;99.90;;;;;;5060750;28;20263;-75
2023/09/29 04:39:15;;;;;;;4.75;4.45;;;16.50;99.90;;;;;;5057867;28;20198;-77
2023/09/29 04:41:42;;;;;;;5.55;4.43;;;16.40;99.90;;;;;;5059890;28;20734;-75
2023/09/29 04:44:09;;;;;;;5.00;4.53;;;16.40;99.90;;;;;;5060837;28;20237;-75
2023/09/29 04:46:38;;;;;;;4.30;3.95;;;16.40;99.90;;;;;;5059905;28;20234;-75
2023/09/29 04:49:05;;;;;;;4.70;4.30;;;16.40;99.90;;;;;;5059266;28;20203;-76
2023/09/29 04:51:33;;;;;;;4.72;4.35;;;16.30;99.90;;;;;;5059665;28;20236;-76
2023/09/29 04:54:00;;;;;;;4.70;4.30;;;16.30;99.90;;;;;;5058428;28;20225;-76
2023/09/29 04:56:27;;;;;;;5.75;4.40;;;16.20;99.90;;;;;;5061513;28;20882;-74
2023/09/29 04:58:55;;;;;;;4.97;4.57;;;16.30;99.90;;;;;;5064292;28;20826;-78
2023/09/29 05:01:24;;;;;;;4.13;3.83;;;16.20;99.90;;;;;;5060452;28;20190;-75
2023/09/29 05:03:51;;;;;;;4.40;4.03;;;16.20;99.90;;;;;;5062627;28;20229;-78
2023/09/29 05:06:18;;;;;;;5.30;4.80;;;16.30;99.90;;;;;;5059680;28;20242;-75
2023/09/29 05:08:47;;;;;;;5.13;4.65;;;16.40;99.90;;;;;;5059077;28;20296;-76
2023/09/29 05:11:21;;;;;;;5.15;4.65;;;16.40;99.90;;;;;;5062214;28;20334;-75
2023/09/29 05:13:48;;;;;;;9.18;5.45;;;16.50;99.90;;;;;;5062318;28;20313;-75
2023/09/29 05:16:15;;;;;;;6.22;5.72;;;16.60;99.90;;;;;;5063180;28;20199;-75
2023/09/29 05:18:42;;;;;;;6.32;5.10;;;16.80;99.90;;;;;;5063291;28;20211;-75
2023/09/29 05:21:09;;;;;;;8.57;5.65;;;16.90;99.90;;;;;;5061415;28;20288;-77
2023/09/29 05:23:37;;;;;;;12.73;6.07;;;17.00;99.90;;;;;;5060463;28;20844;-75
2023/09/29 05:26:07;;;;;;;8.13;5.72;;;17.00;99.90;;;;;;5057906;28;20211;-76
2023/09/29 05:28:34;;;;;;;7.03;5.35;;;17.10;99.90;;;;;;5062092;28;20221;-75
2023/09/29 05:31:02;;;;;;;5.20;4.70;;;17.20;99.90;;;;;;5058342;28;20214;-75
2023/09/29 05:33:29;;;;;;;5.32;4.72;;;17.10;99.90;;;;;;5060017;28;20250;-74
2023/09/29 05:35:56;;;;;;;5.60;5.10;;;17.10;99.90;;;;;;5055452;28;20256;-75
2023/09/29 05:38:23;;;;;;;8.32;4.70;;;17.00;99.90;;;;;;5057917;28;20198;-74
2023/09/29 05:40:51;;;;;;;5.60;4.80;;;17.00;99.90;;;;;;5058477;28;20198;-75
2023/09/29 05:43:19;;;;;;;5.30;4.70;;;16.90;99.90;;;;;;5058548;28;20206;-76
2023/09/29 05:45:47;;;;;;;5.32;4.90;;;16.80;99.90;;;;;;5058392;28;20264;-76
2023/09/29 05:48:14;;;;;;;4.97;4.43;;;16.80;99.90;;;;;;5058855;28;20212;-74
2023/09/29 05:50:41;;;;;;;4.50;4.05;;;16.70;99.90;;;;;;5062470;28;20206;-75
2023/09/29 05:53:08;;;;;;;7.47;5.00;;;16.60;99.90;;;;;;5057145;28;20292;-73
2023/09/29 05:55:35;;;;;;;6.40;5.00;;;16.70;99.90;;;;;;5056352;28;20195;-75
2023/09/29 05:58:02;;;;;;;5.97;5.28;;;16.70;99.90;;;;;;5058762;28;20270;-75
2023/09/29 06:00:31;;;;;;;5.90;5.30;;;16.70;99.90;;;;;;5061266;28;20210;-74
2023/09/29 06:02:59;;;;;;;5.10;4.70;;;16.60;99.90;;;;;;5057587;28;20653;-77
2023/09/29 06:05:26;;;;;;;5.07;4.68;;;16.50;99.90;;;;;;5059529;28;20226;-75
2023/09/29 06:07:53;;;;;;;4.90;4.53;;;16.50;99.90;;;;;;5088306;28;20229;-77
2023/09/29 06:10:20;;;;;;;4.65;4.30;;;16.70;99.90;;;;;;5065447;28;20252;-74
2023/09/29 06:12:47;;;;;;;5.75;5.18;;;17.10;99.90;;;;;;5059969;28;20262;-76
2023/09/29 06:15:14;;;;;;;5.15;4.75;;;17.60;99.90;;;;;;5062052;28;20264;-75
2023/09/29 06:17:43;;;;;;;4.93;4.53;;;17.80;99.90;;;;;;5062417;28;20218;-75
2023/09/29 06:20:10;;;;;;;5.55;5.05;;;18.20;99.90;;;;;;5059423;28;20203;-75
2023/09/29 06:22:38;;;;;;;5.50;4.93;;;18.50;99.90;;;;;;5062512;28;20657;-75
2023/09/29 06:25:06;;;;;;;5.50;5.00;;;18.90;99.90;;;;;;5059669;28;20249;-73
2023/09/29 06:27:32;;;;;;;7.32;5.78;;;19.10;99.90;;;;;;5056735;28;20206;-75
2023/09/29 06:30:00;;;;;;;5.30;4.57;;;19.30;99.90;;;;;;5059280;28;20560;-75
2023/09/29 06:32:26;;;;;;;5.57;5.07;;;19.50;99.90;;;;;;5061287;28;20202;-74
2023/09/29 06:34:55;;;;;;;7.07;5.43;;;19.70;99.90;;;;;;5057687;28;20222;-75
2023/09/29 06:37:22;;;;;;;5.40;4.90;;;19.90;99.90;;;;;;5062260;28;20202;-75
2023/09/29 06:39:49;;;;;;;5.60;5.10;;;20.10;99.90;;;;;;5060038;28;20264;-76
2023/09/29 06:42:16;;;;;;;5.13;4.72;;;20.20;99.90;;;;;;5064151;28;20684;-75
2023/09/29 06:44:43;;;;;;;5.38;4.82;;;20.40;99.90;;;;;;5064391;28;20287;-75
2023/09/29 06:47:10;;;;;;;5.05;4.57;;;20.60;99.90;;;;;;5061657;28;20206;-76
2023/09/29 06:49:37;;;;;;;5.57;4.97;;;20.80;99.90;;;;;;5064438;28;20520;-75
2023/09/29 06:52:05;;;;;;;5.07;4.68;;;21.10;99.90;;;;;;5066502;28;20661;-76
2023/09/29 06:54:32;;;;;;;5.63;4.93;;;21.30;99.90;;;;;;5066033;28;20222;-75
2023/09/29 06:56:59;;;;;;;5.50;4.97;;;21.50;99.90;;;;;;5058648;28;20733;-75
2023/09/29 06:59:26;;;;;;;5.05;4.63;;;21.70;99.90;;;;;;5060372;28;20206;-74
2023/09/29 07:01:54;;;;;;;5.35;4.90;;;21.90;99.90;;;;;;5055759;28;20256;-76
2023/09/29 07:04:21;;;;;;;5.85;4.97;;;22.00;99.90;;;;;;5057322;28;20248;-75
2023/09/29 07:06:48;;;;;;;5.47;4.97;;;22.00;99.90;;;;;;5058501;28;20217;-75
2023/09/29 07:09:17;;;;;;;5.32;4.82;;;22.10;99.90;;;;;;5057375;28;20249;-77
2023/09/29 07:11:44;;;;;;;5.28;4.88;;;22.10;99.90;;;;;;5059893;28;20199;-75
2023/09/29 07:14:11;;;;;;;5.65;4.50;;;22.10;99.90;;;;;;5057453;28;20226;-76
2023/09/29 07:16:42;;;;;;;5.05;4.65;;;22.10;99.90;;;;;;5063618;28;20195;-76
2023/09/29 07:19:09;;;;;;;5.50;4.95;;;22.20;99.90;;;;;;5063719;28;20190;-77
2023/09/29 07:21:35;;;;;;;6.20;5.43;;;22.20;99.90;;;;;;5060412;28;20198;-75
2023/09/29 07:24:03;;;;;;;6.40;5.03;;;22.10;99.90;;;;;;5062417;28;20287;-75
2023/09/29 07:26:31;;;;;;;5.45;4.95;;;22.20;99.90;;;;;;5062421;28;20275;-75
2023/09/29 07:29:01;;;;;;;5.00;4.55;;;22.40;99.90;;;;;;5063734;28;20622;-76
2023/09/29 07:31:35;;;;;;;7.00;4.85;;;22.40;99.90;;;;;;5061720;28;20209;-74
2023/09/29 07:34:02;;;;;;;7.97;5.20;;;22.50;99.90;;;;;;5065230;28;20750;-75
2023/09/29 07:36:30;;;;;;;5.57;4.40;;;22.60;99.90;;;;;;5061007;28;20224;-75
2023/09/29 07:38:57;;;;;;;5.25;4.60;;;22.70;99.90;;;;;;5059453;28;20195;-75
2023/09/29 07:41:24;;;;;;;5.65;5.10;;;22.90;99.90;;;;;;5062404;28;20752;-76
2023/09/29 07:43:53;;;;;;;5.43;4.93;;;23.10;99.90;;;;;;5060194;28;20214;-74
2023/09/29 07:46:20;;;;;;;6.15;4.88;;;23.10;99.90;;;;;;5059161;28;20210;-76
2023/09/29 07:48:47;;;;;;;5.05;4.45;;;23.30;99.90;;;;;;5065361;28;20205;-74
2023/09/29 07:51:14;;;;;;;5.43;4.93;;;23.40;99.90;;;;;;5058229;28;20280;-76
2023/09/29 07:53:41;;;;;;;5.10;4.60;;;23.50;99.90;;;;;;5061540;28;20215;-75
2023/09/29 07:56:08;;;;;;;5.40;4.90;;;23.70;99.90;;;;;;5062952;28;20281;-76
2023/09/29 07:58:35;;;;;;;6.03;5.03;;;23.60;99.90;;;;;;5063147;28;20198;-77
2023/09/29 08:01:04;;;;;;;7.15;4.97;;;23.50;99.90;;;;;;5063042;28;20743;-78
2023/09/29 08:03:31;;;;;;;6.10;5.13;;;23.50;99.90;;;;;;5093867;28;20226;-78
2023/09/29 08:05:58;;;;;;;5.47;4.82;;;23.50;99.90;;;;;;5090655;28;20304;-77
2023/09/29 08:08:25;;;;;;;5.65;5.15;;;23.60;99.90;;;;;;5091654;28;20194;-78
2023/09/29 08:10:53;;;;;;;6.30;4.97;;;23.60;99.90;;;;;;5087722;28;20187;-77
2023/09/29 08:13:20;;;;;;;5.30;4.72;;;23.80;99.90;;;;;;5074024;28;20225;-76
2023/09/29 08:15:47;;;;;;;5.20;4.80;;;23.90;99.90;;;;;;5059350;28;20198;-77
2023/09/29 08:18:17;;;;;;;5.95;5.38;;;24.00;99.90;;;;;;5059207;28;20878;-76
2023/09/29 08:20:44;;;;;;;5.30;4.80;;;24.10;99.90;;;;;;5058769;28;20215;-79
2023/09/29 08:23:11;;;;;;;6.32;5.00;;;24.00;99.90;;;;;;5062059;28;20261;-78
2023/09/29 08:25:38;;;;;;;6.35;5.20;;;24.00;99.90;;;;;;5059021;28;20222;-78
2023/09/29 08:28:06;;;;;;;5.20;4.50;;;23.90;99.90;;;;;;5055955;28;20206;-77
2023/09/29 08:30:33;;;;;;;4.88;4.47;;;23.90;99.90;;;;;;5062088;28;20202;-77
2023/09/29 08:33:00;;;;;;;5.68;4.97;;;23.90;99.90;;;;;;5059705;28;20268;-78
2023/09/29 08:35:28;;;;;;;6.03;4.90;;;24.00;99.90;;;;;;5063491;28;20774;-77
2023/09/29 08:37:55;;;;;;;6.57;5.32;;;24.10;99.90;;;;;;5063001;28;20207;-77
2023/09/29 08:40:22;;;;;;;5.93;5.07;;;24.20;99.90;;;;;;5062812;28;20254;-76
2023/09/29 08:42:50;;;;;;;5.88;4.97;;;24.20;99.90;;;;;;5060461;28;20214;-78
2023/09/29 08:45:18;;;;;;;5.72;4.90;;;24.40;99.90;;;;;;5060513;28;20218;-79
2023/09/29 08:47:50;;;;;;;5.82;4.95;;;24.30;99.90;;;;;;5062330;28;20232;-76
2023/09/29 08:50:18;;;;;;;5.60;4.93;;;24.40;99.90;;;;;;5063883;28;20199;-76
2023/09/29 08:52:49;;;;;;;5.88;5.28;;;24.40;99.90;;;;;;5060951;28;20502;-77
2023/09/29 08:55:17;;;;;;;6.03;4.80;;;24.50;99.90;;;;;;5057896;28;20219;-78
2023/09/29 08:57:45;;;;;;;6.53;4.80;;;24.50;99.90;;;;;;5056333;28;20199;-78
2023/09/29 09:00:13;;;;;;;6.07;4.82;;;24.90;99.90;;;;;;5058363;28;20198;-80
2023/09/29 09:02:42;;;;;;;5.03;4.63;;;25.10;99.90;;;;;;5058190;28;20206;-78
2023/09/29 09:05:11;;;;;;;5.07;4.57;;;25.20;99.90;;;;;;5057791;28;20859;-79
2023/09/29 09:07:40;;;;;;;5.72;4.57;;;25.40;99.90;;;;;;5059312;28;20712;-78
2023/09/29 09:10:10;;;;;;;5.88;5.28;;;25.50;99.90;;;;;;5057089;28;20562;-80
2023/09/29 09:12:39;;;;;;;5.38;4.60;;;25.50;99.90;;;;;;5055770;28;20226;-78
2023/09/29 09:15:08;;;;;;;5.32;4.50;;;25.40;99.90;;;;;;5055242;28;20221;-78
2023/09/29 09:17:36;;;;;;;5.63;4.82;;;25.40;99.90;;;;;;5059181;28;20210;-80
2023/09/29 09:20:04;;;;;;;5.45;4.95;;;25.60;99.90;;;;;;5059395;28;20210;-78
2023/09/29 09:22:33;;;;;;;5.47;4.90;;;25.80;99.90;;;;;;5062065;28;20202;-79
2023/09/29 09:25:02;;;;;;;5.35;4.47;;;25.80;99.90;;;;;;5064024;28;20909;-75
2023/09/29 09:27:38;;;;;;;5.60;5.10;;;26.00;99.90;;;;;;5061116;28;20281;-77
2023/09/29 09:30:07;;;;;;;4.60;4.18;;;26.20;99.90;;;;;;5057878;28;20256;-76
2023/09/29 09:32:34;;;;;;;7.82;4.65;;;26.40;99.90;;;;;;5063391;28;20466;-75
2023/09/29 09:35:01;;;;;;;6.18;4.97;;;26.40;99.90;;;;;;5061433;28;20214;-77
2023/09/29 09:37:29;;;;;;;7.05;4.85;;;26.30;99.90;;;;;;5062361;28;20207;-76
2023/09/29 09:39:59;;;;;;;4.60;4.00;;;26.20;99.90;;;;;;5062485;28;20216;-76
2023/09/29 09:42:27;;;;;;;5.10;4.57;;;26.20;99.90;;;;;;5060736;28;20260;-77
2023/09/29 09:44:58;;;;;;;6.85;4.70;;;26.10;99.90;;;;;;5056948;28;20484;-76
2023/09/29 09:47:26;;;;;;;5.07;4.47;;;26.00;99.90;;;;;;5058850;28;20218;-78
2023/09/29 09:49:59;;;;;;;5.68;4.97;;;26.00;99.90;;;;;;5060385;28;20457;-77
2023/09/29 09:52:29;;;;;;;4.90;4.43;;;25.90;99.90;;;;;;5056822;28;20211;-76
2023/09/29 09:54:58;;;;;;;7.70;4.57;;;25.70;99.90;;;;;;5059732;28;20233;-77
2023/09/29 09:57:33;;;;;;;4.70;4.30;;;25.70;99.90;;;;;;5064153;28;20606;-78
2023/09/29 10:00:08;;;;;;;7.25;5.20;;;25.70;99.90;;;;;;5065805;28;20289;-77
2023/09/29 10:02:39;;;;;;;5.47;4.93;;;25.70;99.90;;;;;;5058444;28;20232;-76
2023/09/29 10:05:12;;;;;;;5.13;4.53;;;25.60;99.90;;;;;;5060575;28;21027;-79
2023/09/29 10:07:45;;;;;;;5.45;4.82;;;25.40;99.90;;;;;;5062987;28;20210;-76
2023/09/29 10:10:24;;;;;;;6.63;5.05;;;25.40;99.90;;;;;;5083229;28;20198;-77
2023/09/29 10:12:54;;;;;;;8.85;5.03;;;25.60;99.90;;;;;;5066598;28;20542;-76
2023/09/29 10:15:23;;;;;;;7.68;4.82;;;25.80;99.90;;;;;;5062748;28;20249;-76
2023/09/29 10:17:50;;;;;;;5.07;4.50;;;26.00;99.90;;;;;;5058886;28;20210;-76
2023/09/29 10:20:21;;;;;;;6.75;4.88;;;26.00;99.90;;;;;;5057907;28;20260;-78
2023/09/29 10:22:54;;;;;;;6.18;5.00;;;25.80;99.90;;;;;;5061162;28;20194;-77
2023/09/29 10:25:21;;;;;;;5.57;4.95;;;25.80;99.90;;;;;;5060881;28;20373;-79
2023/09/29 10:27:50;;;;;;;5.95;5.35;;;25.80;99.90;;;;;;5060680;28;20214;-76
2023/09/29 10:30:17;;;;;;;5.97;5.38;;;25.80;99.90;;;;;;5059339;28;20255;-77
2023/09/29 10:32:47;;;;;;;5.00;4.60;;;26.00;99.90;;;;;;5061972;28;20672;-75
2023/09/29 10:35:19;;;;;;;5.90;4.25;;;26.00;99.90;;;;;;5057486;28;20811;-76
2023/09/29 10:37:54;;;;;;;5.10;4.68;;;26.10;99.90;;;;;;5059062;28;20202;-76
2023/09/29 10:40:22;;;;;;;7.30;4.40;;;26.20;99.90;;;;;;5065342;28;20233;-76
2023/09/29 10:42:54;;;;;;;4.85;4.30;;;26.20;99.90;;;;;;5061663;28;20264;-77
2023/09/29 10:45:36;;;;;;;4.93;4.47;;;26.30;99.90;;;;;;5059274;28;20245;-74
2023/09/29 10:48:09;;;;;;;4.53;4.05;;;26.40;99.90;;;;;;5060324;28;20216;-75
2023/09/29 10:50:43;;;;;;;4.72;4.10;;;26.40;99.90;;;;;;5058497;28;20206;-76
2023/09/29 10:53:11;;;;;;;4.85;4.43;;;26.40;99.90;;;;;;5060364;28;20265;-77
2023/09/29 10:55:43;;;;;;;4.53;4.13;;;26.30;99.90;;;;;;5055945;28;20205;-74
2023/09/29 10:58:11;;;;;;;4.70;4.22;;;26.30;99.90;;;;;;5060086;28;20608;-74
2023/09/29 11:00:43;;;;;;;4.38;3.95;;;26.20;99.90;;;;;;5055451;28;20306;-75
2023/09/29 11:03:13;;;;;;;4.35;3.95;;;26.50;99.90;;;;;;5058526;28;20277;-73
2023/09/29 11:05:48;;;;;;;4.68;4.22;;;26.70;99.90;;;;;;5054175;28;21052;-75
2023/09/29 11:08:19;;;;;;;5.68;4.80;;;26.80;99.90;;;;;;5063009;28;20304;-75
2023/09/29 11:10:57;;;;;;;5.90;4.40;;;26.80;99.90;;;;;;5054932;28;20207;-75
2023/09/29 11:13:26;;;;;;;6.68;4.80;;;26.80;99.90;;;;;;5061221;28;20304;-74
2023/09/29 11:15:53;;;;;;;4.72;4.20;;;26.60;99.90;;;;;;5061044;28;20206;-75
2023/09/29 11:18:32;;;;;;;4.50;4.10;;;26.30;99.90;;;;;;5057077;28;21059;-74
2023/09/29 11:21:03;;;;;;;5.03;4.45;;;26.10;99.90;;;;;;5059748;28;20260;-74
2023/09/29 11:23:40;;;;;;;5.40;4.85;;;26.00;99.90;;;;;;5058760;28;20222;-74
2023/09/29 11:26:10;;;;;;;4.85;4.10;;;26.30;99.90;;;;;;5057598;28;20292;-75
2023/09/29 11:28:41;;;;;;;5.05;4.20;;;26.50;99.90;;;;;;5057104;28;20225;-74
2023/09/29 11:31:11;;;;;;;4.60;4.18;;;26.50;99.90;;;;;;5058738;28;20236;-77
2023/09/29 11:33:39;;;;;;;5.32;4.82;;;26.60;99.90;;;;;;5055180;28;20230;-75
2023/09/29 11:36:14;;;;;;;6.30;4.55;;;26.30;99.90;;;;;;5055729;28;20236;-75
2023/09/29 11:38:41;;;;;;;6.68;4.60;;;25.90;99.90;;;;;;5055697;28;20759;-74
2023/09/29 11:41:08;;;;;;;4.80;4.38;;;25.70;99.90;;;;;;5052946;28;20199;-74
2023/09/29 11:43:36;;;;;;;5.57;4.68;;;25.90;99.90;;;;;;5056950;28;20574;-76
2023/09/29 11:46:04;;;;;;;6.05;4.32;;;26.00;99.90;;;;;;5051897;28;20203;-75
2023/09/29 11:48:31;;;;;;;5.55;4.75;;;26.10;99.90;;;;;;5053532;28;20891;-74
2023/09/29 11:50:59;;;;;;;5.75;4.28;;;25.90;99.90;;;;;;5056348;28;20199;-76
2023/09/29 11:53:27;;;;;;;5.30;4.47;;;26.00;99.90;;;;;;5059134;28;20268;-75
2023/09/29 11:55:55;;;;;;;5.80;4.68;;;26.20;99.90;;;;;;5060039;28;20198;-75
2023/09/29 11:58:22;;;;;;;6.35;4.85;;;26.20;99.90;;;;;;5062353;28;20229;-73
2023/09/29 12:00:50;;;;;;;5.82;5.13;;;26.20;99.90;;;;;;5060693;28;20195;-74
2023/09/29 12:03:21;;;;;;;6.03;4.72;;;26.10;99.90;;;;;;5063463;28;20195;-73
2023/09/29 12:05:50;;;;;;;7.25;4.63;;;25.80;99.90;;;;;;5074210;22;20253;-70
2023/09/29 12:08:19;;;;;;;5.00;4.50;;;25.80;99.90;;;;;;5041129;28;20221;-71
2023/09/29 12:10:47;;;;;;;4.80;4.40;;;25.80;99.90;;;;;;5039220;28;20249;-70
2023/09/29 12:13:15;;;;;;;4.75;4.32;;;25.90;99.90;;;;;;5040091;28;20198;-71
2023/09/29 12:15:43;;;;;;;5.97;4.55;;;25.90;99.90;;;;;;5041105;28;20211;-71
2023/09/29 12:18:10;;;;;;;5.30;4.80;;;26.00;99.90;;;;;;5041263;28;20642;-72
2023/09/29 12:20:38;;;;;;;5.60;4.20;;;26.20;99.90;;;;;;5031418;28;20198;-71
2023/09/29 12:23:06;;;;;;;5.63;5.10;;;26.20;99.90;;;;;;5041352;28;20205;-70
2023/09/29 12:25:35;;;;;;;4.80;4.40;;;26.10;99.90;;;;;;5040834;28;20254;-71
2023/09/29 12:28:03;;;;;;;6.28;4.93;;;26.00;99.90;;;;;;5040834;28;20276;-71
2023/09/29 12:30:31;;;;;;;5.47;4.15;;;25.90;99.90;;;;;;5033600;28;20673;-70
2023/09/29 12:32:58;;;;;;;4.65;4.25;;;25.80;99.90;;;;;;5040206;28;20230;-72
2023/09/29 12:35:26;;;;;;;5.05;4.55;;;25.70;99.90;;;;;;5040385;28;20724;-70
2023/09/29 12:37:53;;;;;;;5.18;4.70;;;25.80;99.90;;;;;;5037284;28;20245;-70
2023/09/29 12:40:20;;;;;;;5.95;5.35;;;26.00;99.90;;;;;;5037124;28;20288;-70
2023/09/29 12:42:49;;;;;;;7.43;5.07;;;26.00;99.90;;;;;;5038599;28;20203;-70
2023/09/29 12:45:18;;;;;;;5.60;4.88;;;25.90;99.90;;;;;;5037070;28;20310;-71
2023/09/29 12:47:46;;;;;;;6.72;5.60;;;25.90;99.90;;;;;;5037177;28;20211;-70
2023/09/29 12:50:13;;;;;;;5.13;4.63;;;25.70;99.90;;;;;;5033078;28;20206;-71
2023/09/29 12:52:40;;;;;;;5.32;4.82;;;25.80;99.90;;;;;;5040965;28;20608;-71